sensor_id;sensor_type;location;lat;lon;timestamp;pressure;altitude;pressure_sealevel;temperature;humidity
51239;BME280;38154;47.548;18.828;2023-05-09T00:01:52;99482.53;;;7.58;70.88
51239;BME280;38154;47.548;18.828;2023-05-09T00:04:18;99485.94;;;7.56;70.67
51239;BME280;38154;47.548;18.828;2023-05-09T00:06:44;99482.41;;;7.54;70.96
51239;BME280;38154;47.548;18.828;2023-05-09T00:09:10;99479.78;;;7.52;71.42
51239;BME280;38154;47.548;18.828;2023-05-09T00:11:37;99503.00;;;7.46;71.78
51239;BME280;38154;47.548;18.828;2023-05-09T00:14:02;99496.91;;;7.44;71.54
51239;BME280;38154;47.548;18.828;2023-05-09T00:16:28;99493.38;;;7.42;72.10
51239;BME280;38154;47.548;18.828;2023-05-09T00:18:54;99499.44;;;7.42;71.50
51239;BME280;38154;47.548;18.828;2023-05-09T00:21:20;99504.47;;;7.36;72.47
51239;BME280;38154;47.548;18.828;2023-05-09T00:23:46;99507.81;;;7.32;72.95
51239;BME280;38154;47.548;18.828;2023-05-09T00:26:11;99503.94;;;7.16;74.31
51239;BME280;38154;47.548;18.828;2023-05-09T00:28:37;99504.69;;;7.11;75.13
51239;BME280;38154;47.548;18.828;2023-05-09T00:31:03;99509.62;;;7.03;77.90
51239;BME280;38154;47.548;18.828;2023-05-09T00:33:29;99510.09;;;6.88;77.90
51239;BME280;38154;47.548;18.828;2023-05-09T00:35:54;99504.56;;;6.76;79.17
51239;BME280;38154;47.548;18.828;2023-05-09T00:38:21;99494.12;;;6.73;78.02
51239;BME280;38154;47.548;18.828;2023-05-09T00:40:47;99503.81;;;6.80;77.18
51239;BME280;38154;47.548;18.828;2023-05-09T00:43:12;99498.72;;;6.83;78.15
51239;BME280;38154;47.548;18.828;2023-05-09T00:45:38;99499.69;;;6.86;76.68
51239;BME280;38154;47.548;18.828;2023-05-09T00:48:04;99498.50;;;6.75;79.56
51239;BME280;38154;47.548;18.828;2023-05-09T00:50:30;99498.72;;;6.83;76.39
51239;BME280;38154;47.548;18.828;2023-05-09T00:52:56;99496.41;;;6.92;76.53
51239;BME280;38154;47.548;18.828;2023-05-09T00:55:21;99502.31;;;6.88;76.81
51239;BME280;38154;47.548;18.828;2023-05-09T00:57:47;99490.50;;;6.98;77.08
51239;BME280;38154;47.548;18.828;2023-05-09T01:00:13;99491.28;;;6.95;76.93
51239;BME280;38154;47.548;18.828;2023-05-09T01:02:43;99496.22;;;6.86;77.96
51239;BME280;38154;47.548;18.828;2023-05-09T01:05:09;99501.06;;;6.74;78.45
51239;BME280;38154;47.548;18.828;2023-05-09T01:12:59;99497.28;;;6.62;80.48
51239;BME280;38154;47.548;18.828;2023-05-09T01:15:29;99500.03;;;6.68;79.37
51239;BME280;38154;47.548;18.828;2023-05-09T01:18:12;99498.97;;;6.60;81.60
51239;BME280;38154;47.548;18.828;2023-05-09T01:20:41;99496.38;;;6.62;80.51
51239;BME280;38154;47.548;18.828;2023-05-09T01:23:16;99499.59;;;6.53;83.80
51239;BME280;38154;47.548;18.828;2023-05-09T01:26:00;99504.97;;;6.59;80.02
51239;BME280;38154;47.548;18.828;2023-05-09T01:30:58;99501.72;;;6.66;79.42
51239;BME280;38154;47.548;18.828;2023-05-09T01:33:25;99494.97;;;6.73;79.37
51239;BME280;38154;47.548;18.828;2023-05-09T01:35:56;99489.47;;;6.61;80.12
51239;BME280;38154;47.548;18.828;2023-05-09T01:38:22;99486.16;;;6.66;80.38
51239;BME280;38154;47.548;18.828;2023-05-09T01:40:50;99483.31;;;6.57;81.72
51239;BME280;38154;47.548;18.828;2023-05-09T01:43:17;99490.34;;;6.61;81.52
51239;BME280;38154;47.548;18.828;2023-05-09T01:45:43;99487.97;;;6.69;80.71
51239;BME280;38154;47.548;18.828;2023-05-09T01:48:10;99485.19;;;6.63;80.57
51239;BME280;38154;47.548;18.828;2023-05-09T01:50:36;99480.06;;;6.64;81.51
51239;BME280;38154;47.548;18.828;2023-05-09T01:53:02;99472.19;;;6.61;81.31
51239;BME280;38154;47.548;18.828;2023-05-09T01:55:30;99474.59;;;6.55;82.57
51239;BME280;38154;47.548;18.828;2023-05-09T01:57:57;99468.59;;;6.56;81.81
51239;BME280;38154;47.548;18.828;2023-05-09T02:00:23;99464.25;;;6.55;81.80
51239;BME280;38154;47.548;18.828;2023-05-09T02:02:49;99477.94;;;6.51;83.26
51239;BME280;38154;47.548;18.828;2023-05-09T02:05:16;99473.63;;;6.52;82.74
51239;BME280;38154;47.548;18.828;2023-05-09T02:07:42;99458.00;;;6.48;82.78
51239;BME280;38154;47.548;18.828;2023-05-09T02:10:09;99468.31;;;6.45;83.34
51239;BME280;38154;47.548;18.828;2023-05-09T02:12:36;99473.38;;;6.42;83.45
51239;BME280;38154;47.548;18.828;2023-05-09T02:15:02;99462.13;;;6.42;83.62
51239;BME280;38154;47.548;18.828;2023-05-09T02:17:28;99458.63;;;6.40;84.11
51239;BME280;38154;47.548;18.828;2023-05-09T02:19:55;99456.03;;;6.40;83.53
51239;BME280;38154;47.548;18.828;2023-05-09T02:22:21;99456.94;;;6.42;83.70
51239;BME280;38154;47.548;18.828;2023-05-09T02:24:47;99456.94;;;6.42;83.71
51239;BME280;38154;47.548;18.828;2023-05-09T02:27:12;99459.53;;;6.40;83.90
51239;BME280;38154;47.548;18.828;2023-05-09T02:29:46;99452.56;;;6.39;84.71
51239;BME280;38154;47.548;18.828;2023-05-09T02:32:20;99459.37;;;6.36;84.47
51239;BME280;38154;47.548;18.828;2023-05-09T02:34:46;99452.37;;;6.33;84.80
51239;BME280;38154;47.548;18.828;2023-05-09T02:37:13;99453.41;;;6.38;85.22
51239;BME280;38154;47.548;18.828;2023-05-09T02:39:39;99442.16;;;6.38;85.11
51239;BME280;38154;47.548;18.828;2023-05-09T02:42:07;99440.50;;;6.40;85.54
51239;BME280;38154;47.548;18.828;2023-05-09T02:44:32;99443.94;;;6.39;85.25
51239;BME280;38154;47.548;18.828;2023-05-09T02:46:59;99437.03;;;6.39;85.04
51239;BME280;38154;47.548;18.828;2023-05-09T02:49:25;99437.91;;;6.40;85.08
51239;BME280;38154;47.548;18.828;2023-05-09T02:51:51;99436.22;;;6.42;84.70
51239;BME280;38154;47.548;18.828;2023-05-09T02:54:16;99442.25;;;6.41;85.07
51239;BME280;38154;47.548;18.828;2023-05-09T02:56:42;99444.81;;;6.39;85.08
51239;BME280;38154;47.548;18.828;2023-05-09T02:59:08;99443.13;;;6.41;85.09
51239;BME280;38154;47.548;18.828;2023-05-09T03:01:34;99446.56;;;6.40;85.20
51239;BME280;38154;47.548;18.828;2023-05-09T03:04:00;99447.34;;;6.38;85.53
51239;BME280;38154;47.548;18.828;2023-05-09T03:06:26;99444.66;;;6.35;85.50
51239;BME280;38154;47.548;18.828;2023-05-09T03:08:51;99429.06;;;6.33;85.52
51239;BME280;38154;47.548;18.828;2023-05-09T03:11:17;99434.22;;;6.31;86.18
51239;BME280;38154;47.548;18.828;2023-05-09T03:13:42;99439.47;;;6.35;85.73
51239;BME280;38154;47.548;18.828;2023-05-09T03:16:10;99443.88;;;6.37;85.93
51239;BME280;38154;47.548;18.828;2023-05-09T03:18:36;99439.56;;;6.38;85.82
51239;BME280;38154;47.548;18.828;2023-05-09T03:21:02;99441.41;;;6.42;86.34
51239;BME280;38154;47.548;18.828;2023-05-09T03:23:28;99434.59;;;6.44;86.51
51239;BME280;38154;47.548;18.828;2023-05-09T03:25:53;99434.59;;;6.44;85.49
51239;BME280;38154;47.548;18.828;2023-05-09T03:28:19;99438.13;;;6.47;86.01
51239;BME280;38154;47.548;18.828;2023-05-09T03:30:45;99438.13;;;6.47;85.59
51239;BME280;38154;47.548;18.828;2023-05-09T03:33:10;99431.22;;;6.48;85.42
51239;BME280;38154;47.548;18.828;2023-05-09T03:35:36;99447.78;;;6.53;85.91
51239;BME280;38154;47.548;18.828;2023-05-09T03:38:02;99440.09;;;6.56;85.16
51239;BME280;38154;47.548;18.828;2023-05-09T03:40:27;99435.78;;;6.57;85.38
51239;BME280;38154;47.548;18.828;2023-05-09T03:42:53;99447.13;;;6.60;84.77
51239;BME280;38154;47.548;18.828;2023-05-09T03:45:18;99449.00;;;6.66;84.55
51239;BME280;38154;47.548;18.828;2023-05-09T03:47:44;99448.19;;;6.68;84.58
51239;BME280;38154;47.548;18.828;2023-05-09T03:50:10;99459.47;;;6.69;84.80
51239;BME280;38154;47.548;18.828;2023-05-09T03:52:36;99457.84;;;6.73;84.63
51239;BME280;38154;47.548;18.828;2023-05-09T03:55:02;99451.06;;;6.78;83.87
51239;BME280;38154;47.548;18.828;2023-05-09T03:57:27;99450.22;;;6.79;83.89
51239;BME280;38154;47.548;18.828;2023-05-09T03:59:53;99459.78;;;6.81;84.40
51239;BME280;38154;47.548;18.828;2023-05-09T04:02:19;99458.84;;;6.78;83.72
51239;BME280;38154;47.548;18.828;2023-05-09T04:04:44;99461.50;;;6.81;83.18
51239;BME280;38154;47.548;18.828;2023-05-09T04:07:11;99455.53;;;6.83;83.67
51239;BME280;38154;47.548;18.828;2023-05-09T04:09:37;99461.66;;;6.85;84.52
51239;BME280;38154;47.548;18.828;2023-05-09T04:12:03;99465.34;;;6.95;83.75
51239;BME280;38154;47.548;18.828;2023-05-09T04:14:28;99456.06;;;7.03;83.51
51239;BME280;38154;47.548;18.828;2023-05-09T04:16:54;99457.56;;;6.95;84.32
51239;BME280;38154;47.548;18.828;2023-05-09T04:19:20;99461.16;;;6.99;86.26
51239;BME280;38154;47.548;18.828;2023-05-09T04:21:45;99464.44;;;6.93;86.04
51239;BME280;38154;47.548;18.828;2023-05-09T04:24:11;99469.66;;;6.95;86.21
51239;BME280;38154;47.548;18.828;2023-05-09T04:26:36;99465.59;;;7.04;87.04
51239;BME280;38154;47.548;18.828;2023-05-09T04:29:02;99465.19;;;7.21;84.39
51239;BME280;38154;47.548;18.828;2023-05-09T04:31:28;99459.66;;;7.43;83.61
51239;BME280;38154;47.548;18.828;2023-05-09T04:33:54;99460.16;;;7.64;83.16
51239;BME280;38154;47.548;18.828;2023-05-09T04:36:22;99461.88;;;7.63;84.18
51239;BME280;38154;47.548;18.828;2023-05-09T04:38:48;99466.91;;;7.57;84.63
51239;BME280;38154;47.548;18.828;2023-05-09T04:41:14;99468.81;;;7.64;83.66
51239;BME280;38154;47.548;18.828;2023-05-09T04:43:39;99461.72;;;7.57;83.08
51239;BME280;38154;47.548;18.828;2023-05-09T04:46:05;99465.19;;;7.56;79.27
51239;BME280;38154;47.548;18.828;2023-05-09T04:48:33;99467.31;;;7.74;79.94
51239;BME280;38154;47.548;18.828;2023-05-09T04:50:59;99466.69;;;7.84;80.90
51239;BME280;38154;47.548;18.828;2023-05-09T04:53:25;99471.28;;;7.96;81.44
51239;BME280;38154;47.548;18.828;2023-05-09T04:55:52;99469.41;;;8.27;76.51
51239;BME280;38154;47.548;18.828;2023-05-09T04:58:18;99473.63;;;8.63;75.15
51239;BME280;38154;47.548;18.828;2023-05-09T05:00:44;99472.84;;;9.11;75.35
51239;BME280;38154;47.548;18.828;2023-05-09T05:03:11;99457.97;;;9.54;69.98
51239;BME280;38154;47.548;18.828;2023-05-09T05:05:37;99465.41;;;9.84;69.00
51239;BME280;38154;47.548;18.828;2023-05-09T05:08:02;99472.75;;;10.12;67.26
51239;BME280;38154;47.548;18.828;2023-05-09T05:10:28;99481.00;;;10.41;64.61
51239;BME280;38154;47.548;18.828;2023-05-09T05:12:54;99482.84;;;10.50;64.01
51239;BME280;38154;47.548;18.828;2023-05-09T05:15:20;99478.03;;;10.82;64.56
51239;BME280;38154;47.548;18.828;2023-05-09T05:17:46;99488.44;;;10.81;62.40
51239;BME280;38154;47.548;18.828;2023-05-09T05:20:11;99495.34;;;10.75;61.93
51239;BME280;38154;47.548;18.828;2023-05-09T05:22:37;99486.31;;;11.25;63.75
51239;BME280;38154;47.548;18.828;2023-05-09T05:25:03;99485.00;;;11.72;63.50
51239;BME280;38154;47.548;18.828;2023-05-09T05:27:29;99491.19;;;11.82;59.36
51239;BME280;38154;47.548;18.828;2023-05-09T05:29:55;99488.38;;;11.57;60.17
51239;BME280;38154;47.548;18.828;2023-05-09T05:32:21;99489.13;;;11.45;61.14
51239;BME280;38154;47.548;18.828;2023-05-09T05:34:46;99488.44;;;11.69;61.00
51239;BME280;38154;47.548;18.828;2023-05-09T05:37:12;99488.44;;;11.68;61.52
51239;BME280;38154;47.548;18.828;2023-05-09T05:39:38;99485.78;;;11.62;59.64
51239;BME280;38154;47.548;18.828;2023-05-09T05:42:03;99486.66;;;11.61;58.65
51239;BME280;38154;47.548;18.828;2023-05-09T05:44:29;99485.16;;;11.91;59.54
51239;BME280;38154;47.548;18.828;2023-05-09T05:46:55;99493.44;;;12.60;56.58
51239;BME280;38154;47.548;18.828;2023-05-09T05:49:21;99495.28;;;12.81;54.91
51239;BME280;38154;47.548;18.828;2023-05-09T05:51:51;99492.63;;;12.78;53.32
51239;BME280;38154;47.548;18.828;2023-05-09T05:54:16;99484.84;;;12.98;53.30
51239;BME280;38154;47.548;18.828;2023-05-09T05:56:42;99474.38;;;12.95;52.59
51239;BME280;38154;47.548;18.828;2023-05-09T05:59:08;99482.91;;;12.44;55.27
51239;BME280;38154;47.548;18.828;2023-05-09T06:01:35;99481.28;;;12.71;53.45
51239;BME280;38154;47.548;18.828;2023-05-09T06:04:01;99484.94;;;13.23;53.30
51239;BME280;38154;47.548;18.828;2023-05-09T06:06:26;99486.62;;;14.56;52.08
51239;BME280;38154;47.548;18.828;2023-05-09T06:08:52;99487.12;;;15.37;48.06
51239;BME280;38154;47.548;18.828;2023-05-09T06:11:18;99490.75;;;15.08;46.45
51239;BME280;38154;47.548;18.828;2023-05-09T06:13:43;99494.47;;;14.69;47.18
51239;BME280;38154;47.548;18.828;2023-05-09T06:16:09;99490.69;;;15.27;46.08
51239;BME280;38154;47.548;18.828;2023-05-09T06:18:35;99490.63;;;16.38;42.92
51239;BME280;38154;47.548;18.828;2023-05-09T06:21:05;99499.41;;;18.25;38.69
51239;BME280;38154;47.548;18.828;2023-05-09T06:23:30;99501.97;;;19.94;35.49
51239;BME280;38154;47.548;18.828;2023-05-09T06:25:56;99504.44;;;21.28;33.34
51239;BME280;38154;47.548;18.828;2023-05-09T06:28:22;99501.50;;;22.19;31.49
51239;BME280;38154;47.548;18.828;2023-05-09T06:30:48;99492.06;;;22.86;30.01
51239;BME280;38154;47.548;18.828;2023-05-09T06:33:13;99504.72;;;23.03;29.02
51239;BME280;38154;47.548;18.828;2023-05-09T06:35:39;99511.34;;;23.39;28.70
51239;BME280;38154;47.548;18.828;2023-05-09T06:38:04;99496.56;;;23.31;28.97
51239;BME280;38154;47.548;18.828;2023-05-09T06:40:31;99492.06;;;22.86;29.60
51239;BME280;38154;47.548;18.828;2023-05-09T06:42:57;99480.44;;;21.31;31.68
51239;BME280;38154;47.548;18.828;2023-05-09T06:45:22;99489.69;;;18.72;36.23
51239;BME280;38154;47.548;18.828;2023-05-09T06:47:48;99485.88;;;17.95;37.33
51239;BME280;38154;47.548;18.828;2023-05-09T06:50:14;99475.50;;;19.19;36.30
51239;BME280;38154;47.548;18.828;2023-05-09T06:52:39;99486.97;;;21.21;32.29
51239;BME280;38154;47.548;18.828;2023-05-09T06:55:05;99488.19;;;22.46;30.51
51239;BME280;38154;47.548;18.828;2023-05-09T06:57:31;99483.50;;;21.76;31.33
51239;BME280;38154;47.548;18.828;2023-05-09T06:59:57;99466.22;;;20.76;32.80
51239;BME280;38154;47.548;18.828;2023-05-09T07:02:22;99470.62;;;19.41;34.21
51239;BME280;38154;47.548;18.828;2023-05-09T07:04:48;99464.53;;;18.08;37.27
51239;BME280;38154;47.548;18.828;2023-05-09T07:07:14;99468.56;;;17.21;38.87
51239;BME280;38154;47.548;18.828;2023-05-09T07:09:40;99479.84;;;19.23;36.89
51239;BME280;38154;47.548;18.828;2023-05-09T07:12:06;99469.16;;;20.34;34.34
51239;BME280;38154;47.548;18.828;2023-05-09T07:14:32;99473.28;;;18.57;37.12
51239;BME280;38154;47.548;18.828;2023-05-09T07:16:57;99467.47;;;17.36;39.53
51239;BME280;38154;47.548;18.828;2023-05-09T07:19:23;99461.56;;;15.54;42.95
51239;BME280;38154;47.548;18.828;2023-05-09T07:21:48;99456.94;;;15.90;43.53
51239;BME280;38154;47.548;18.828;2023-05-09T07:24:14;99452.81;;;17.71;40.40
51239;BME280;38154;47.548;18.828;2023-05-09T07:26:40;99463.00;;;18.43;38.81
51239;BME280;38154;47.548;18.828;2023-05-09T07:29:06;99462.56;;;17.66;39.68
51239;BME280;38154;47.548;18.828;2023-05-09T07:31:32;99458.94;;;19.12;37.65
51239;BME280;38154;47.548;18.828;2023-05-09T07:33:57;99459.69;;;20.25;35.07
51239;BME280;38154;47.548;18.828;2023-05-09T07:36:23;99454.38;;;19.92;35.04
51239;BME280;38154;47.548;18.828;2023-05-09T07:38:49;99448.53;;;19.79;35.57
51239;BME280;38154;47.548;18.828;2023-05-09T07:41:18;99452.81;;;19.48;36.22
51239;BME280;38154;47.548;18.828;2023-05-09T07:43:43;99453.22;;;18.46;37.97
51239;BME280;38154;47.548;18.828;2023-05-09T07:46:09;99449.59;;;18.08;39.35
51239;BME280;38154;47.548;18.828;2023-05-09T07:48:35;99449.69;;;16.88;41.32
51239;BME280;38154;47.548;18.828;2023-05-09T07:51:01;99454.03;;;18.05;39.16
51239;BME280;38154;47.548;18.828;2023-05-09T07:53:27;99437.97;;;19.04;37.27
51239;BME280;38154;47.548;18.828;2023-05-09T07:55:52;99450.97;;;19.51;37.59
51239;BME280;38154;47.548;18.828;2023-05-09T07:58:18;99441.91;;;18.85;38.85
51239;BME280;38154;47.548;18.828;2023-05-09T08:00:44;99436.72;;;17.90;40.40
51239;BME280;38154;47.548;18.828;2023-05-09T08:03:09;99437.16;;;17.06;39.80
51239;BME280;38154;47.548;18.828;2023-05-09T08:05:36;99436.72;;;16.72;41.20
51239;BME280;38154;47.548;18.828;2023-05-09T08:08:02;99431.47;;;16.68;40.98
51239;BME280;38154;47.548;18.828;2023-05-09T08:10:28;99428.28;;;16.43;42.36
51239;BME280;38154;47.548;18.828;2023-05-09T08:12:55;99427.22;;;16.60;41.88
51239;BME280;38154;47.548;18.828;2023-05-09T08:15:21;99431.69;;;18.23;40.25
51239;BME280;38154;47.548;18.828;2023-05-09T08:17:47;99425.22;;;21.44;35.19
51239;BME280;38154;47.548;18.828;2023-05-09T08:20:12;99438.50;;;23.63;30.59
51239;BME280;38154;47.548;18.828;2023-05-09T08:22:38;99432.66;;;24.96;28.98
51239;BME280;38154;47.548;18.828;2023-05-09T08:25:05;99436.94;;;25.90;26.89
51239;BME280;38154;47.548;18.828;2023-05-09T08:27:31;99440.66;;;26.23;25.87
51239;BME280;38154;47.548;18.828;2023-05-09T08:29:56;99443.69;;;27.15;25.70
51239;BME280;38154;47.548;18.828;2023-05-09T08:32:22;99444.97;;;27.72;24.99
51239;BME280;38154;47.548;18.828;2023-05-09T08:34:48;99439.94;;;26.19;25.19
51239;BME280;38154;47.548;18.828;2023-05-09T08:37:13;99431.66;;;24.79;27.16
51239;BME280;38154;47.548;18.828;2023-05-09T08:39:39;99433.41;;;25.55;26.11
51239;BME280;38154;47.548;18.828;2023-05-09T08:42:05;99431.06;;;26.19;25.36
51239;BME280;38154;47.548;18.828;2023-05-09T08:44:31;99430.66;;;27.25;25.15
51239;BME280;38154;47.548;18.828;2023-05-09T08:46:58;99433.22;;;28.34;23.31
51239;BME280;38154;47.548;18.828;2023-05-09T08:49:24;99426.72;;;28.09;23.69
51239;BME280;38154;47.548;18.828;2023-05-09T08:51:50;99432.25;;;26.64;24.83
51239;BME280;38154;47.548;18.828;2023-05-09T08:54:16;99435.34;;;26.39;25.29
51239;BME280;38154;47.548;18.828;2023-05-09T08:56:42;99426.62;;;24.92;26.57
51239;BME280;38154;47.548;18.828;2023-05-09T08:59:08;99435.34;;;26.39;25.76
51239;BME280;38154;47.548;18.828;2023-05-09T09:01:34;99430.00;;;25.34;25.61
51239;BME280;38154;47.548;18.828;2023-05-09T09:04:05;99421.72;;;26.10;25.96
51239;BME280;38154;47.548;18.828;2023-05-09T09:06:35;99430.75;;;26.58;26.18
51239;BME280;38154;47.548;18.828;2023-05-09T09:09:01;99425.28;;;27.57;24.95
51239;BME280;38154;47.548;18.828;2023-05-09T09:11:29;99420.38;;;27.17;23.46
51239;BME280;38154;47.548;18.828;2023-05-09T09:13:54;99428.81;;;26.44;24.53
51239;BME280;38154;47.548;18.828;2023-05-09T09:16:23;99414.53;;;26.61;24.27
51239;BME280;38154;47.548;18.828;2023-05-09T09:18:50;99406.37;;;26.96;24.15
51239;BME280;38154;47.548;18.828;2023-05-09T09:21:16;99406.97;;;27.96;23.13
51239;BME280;38154;47.548;18.828;2023-05-09T09:23:43;99408.44;;;28.44;23.07
51239;BME280;38154;47.548;18.828;2023-05-09T09:26:09;99398.16;;;27.47;23.45
51239;BME280;38154;47.548;18.828;2023-05-09T09:28:35;99411.22;;;28.43;23.92
51239;BME280;38154;47.548;18.828;2023-05-09T09:31:00;99419.78;;;28.05;23.31
51239;BME280;38154;47.548;18.828;2023-05-09T09:33:27;99425.03;;;26.15;24.75
51239;BME280;38154;47.548;18.828;2023-05-09T09:35:54;99403.53;;;24.33;26.29
51239;BME280;38154;47.548;18.828;2023-05-09T09:38:20;99402.97;;;24.66;27.34
51239;BME280;38154;47.548;18.828;2023-05-09T09:40:56;99419.78;;;25.23;26.61
51239;BME280;38154;47.548;18.828;2023-05-09T09:43:29;99398.69;;;25.72;25.16
51239;BME280;38154;47.548;18.828;2023-05-09T09:45:55;99408.72;;;25.67;24.64
51239;BME280;38154;47.548;18.828;2023-05-09T09:48:27;99402.66;;;25.10;25.95
51239;BME280;38154;47.548;18.828;2023-05-09T09:50:55;99399.66;;;24.00;26.48
51239;BME280;38154;47.548;18.828;2023-05-09T09:53:25;99390.47;;;25.04;25.88
51239;BME280;38154;47.548;18.828;2023-05-09T09:55:51;99392.50;;;26.74;24.14
51239;BME280;38154;47.548;18.828;2023-05-09T09:58:18;99385.69;;;28.07;23.31
51239;BME280;38154;47.548;18.828;2023-05-09T10:00:46;99386.59;;;27.77;23.90
51239;BME280;38154;47.548;18.828;2023-05-09T10:03:15;99390.84;;;24.58;25.12
51239;BME280;38154;47.548;18.828;2023-05-09T10:05:41;99378.25;;;24.41;26.32
51239;BME280;38154;47.548;18.828;2023-05-09T10:08:07;99381.66;;;25.21;24.87
51239;BME280;38154;47.548;18.828;2023-05-09T10:10:34;99377.22;;;24.84;25.12
51239;BME280;38154;47.548;18.828;2023-05-09T10:15:29;99385.72;;;24.92;23.96
51239;BME280;38154;47.548;18.828;2023-05-09T10:17:56;99371.00;;;25.39;24.09
51239;BME280;38154;47.548;18.828;2023-05-09T10:20:22;99380.16;;;26.87;23.87
51239;BME280;38154;47.548;18.828;2023-05-09T10:22:48;99373.44;;;26.46;23.63
51239;BME280;38154;47.548;18.828;2023-05-09T10:25:21;99377.47;;;26.38;24.12
51239;BME280;38154;47.548;18.828;2023-05-09T10:27:49;99376.06;;;27.28;23.53
51239;BME280;38154;47.548;18.828;2023-05-09T10:30:18;99374.06;;;24.75;25.13
51239;BME280;38154;47.548;18.828;2023-05-09T10:32:53;99361.31;;;23.84;25.73
51239;BME280;38154;47.548;18.828;2023-05-09T10:35:26;99370.06;;;22.77;27.94
51239;BME280;38154;47.548;18.828;2023-05-09T10:37:54;99364.03;;;23.82;26.67
51239;BME280;38154;47.548;18.828;2023-05-09T10:40:21;99366.25;;;24.90;25.88
51239;BME280;38154;47.548;18.828;2023-05-09T10:42:47;99359.47;;;25.38;23.68
51239;BME280;38154;47.548;18.828;2023-05-09T10:45:12;99364.28;;;25.66;24.48
51239;BME280;38154;47.548;18.828;2023-05-09T10:47:38;99360.16;;;25.05;25.51
51239;BME280;38154;47.548;18.828;2023-05-09T10:50:05;99355.16;;;24.42;26.18
51239;BME280;38154;47.548;18.828;2023-05-09T10:52:32;99370.00;;;25.22;23.06
51239;BME280;38154;47.548;18.828;2023-05-09T10:54:59;99362.44;;;23.56;25.98
51239;BME280;38154;47.548;18.828;2023-05-09T10:57:28;99366.81;;;22.92;25.91
51239;BME280;38154;47.548;18.828;2023-05-09T10:59:55;99356.38;;;23.32;26.57
51239;BME280;38154;47.548;18.828;2023-05-09T11:02:21;99367.84;;;24.16;26.04
51239;BME280;38154;47.548;18.828;2023-05-09T11:07:37;99360.81;;;24.74;26.74
51239;BME280;38154;47.548;18.828;2023-05-09T11:10:07;99351.72;;;26.19;24.66
51239;BME280;38154;47.548;18.828;2023-05-09T11:12:33;99361.59;;;25.31;25.35
51239;BME280;38154;47.548;18.828;2023-05-09T11:15:06;99360.50;;;22.95;27.83
51239;BME280;38154;47.548;18.828;2023-05-09T11:17:32;99346.78;;;22.13;29.26
51239;BME280;38154;47.548;18.828;2023-05-09T11:20:02;99348.72;;;21.32;30.91
51239;BME280;38154;47.548;18.828;2023-05-09T11:22:51;99347.38;;;21.19;30.06
51239;BME280;38154;47.548;18.828;2023-05-09T11:25:16;99341.47;;;20.23;31.00
51239;BME280;38154;47.548;18.828;2023-05-09T11:27:49;99342.59;;;21.03;30.73
51239;BME280;38154;47.548;18.828;2023-05-09T11:30:17;99340.88;;;19.81;32.42
51239;BME280;38154;47.548;18.828;2023-05-09T11:32:46;99336.41;;;18.76;32.47
51239;BME280;38154;47.548;18.828;2023-05-09T11:35:17;99324.84;;;18.41;32.80
51239;BME280;38154;47.548;18.828;2023-05-09T11:37:45;99324.81;;;18.83;32.21
51239;BME280;38154;47.548;18.828;2023-05-09T11:40:11;99321.03;;;19.63;32.20
51239;BME280;38154;47.548;18.828;2023-05-09T11:42:40;99323.69;;;20.86;30.16
51239;BME280;38154;47.548;18.828;2023-05-09T11:45:06;99321.56;;;20.69;31.83
51239;BME280;38154;47.548;18.828;2023-05-09T11:47:32;99318.31;;;19.99;32.45
51239;BME280;38154;47.548;18.828;2023-05-09T11:50:00;99311.78;;;20.71;31.48
51239;BME280;38154;47.548;18.828;2023-05-09T11:52:25;99315.78;;;21.11;29.22
51239;BME280;38154;47.548;18.828;2023-05-09T11:54:51;99324.59;;;21.38;30.30
51239;BME280;38154;47.548;18.828;2023-05-09T11:57:17;99312.41;;;20.21;31.37
51239;BME280;38154;47.548;18.828;2023-05-09T11:59:43;99317.75;;;19.54;32.49
51239;BME280;38154;47.548;18.828;2023-05-09T12:02:09;99303.62;;;18.45;34.15
51239;BME280;38154;47.548;18.828;2023-05-09T12:04:35;99306.63;;;19.06;34.90
51239;BME280;38154;47.548;18.828;2023-05-09T12:07:01;99297.69;;;19.45;33.57
51239;BME280;38154;47.548;18.828;2023-05-09T12:09:30;99296.19;;;19.36;32.42
51239;BME280;38154;47.548;18.828;2023-05-09T12:12:00;99296.94;;;20.06;31.49
51239;BME280;38154;47.548;18.828;2023-05-09T12:14:26;99298.34;;;20.17;32.43
51239;BME280;38154;47.548;18.828;2023-05-09T12:16:52;99285.00;;;19.91;33.35
51239;BME280;38154;47.548;18.828;2023-05-09T12:19:17;99296.50;;;20.21;33.08
51239;BME280;38154;47.548;18.828;2023-05-09T12:21:43;99278.97;;;19.54;32.81
51239;BME280;38154;47.548;18.828;2023-05-09T12:24:09;99288.09;;;19.74;32.60
51239;BME280;38154;47.548;18.828;2023-05-09T12:26:34;99285.56;;;20.62;32.27
51239;BME280;38154;47.548;18.828;2023-05-09T12:29:00;99290.78;;;20.65;31.26
51239;BME280;38154;47.548;18.828;2023-05-09T12:31:26;99278.66;;;20.56;32.26
51239;BME280;38154;47.548;18.828;2023-05-09T12:33:52;99283.97;;;19.96;32.22
51239;BME280;38154;47.548;18.828;2023-05-09T12:36:17;99293.72;;;19.28;32.53
51239;BME280;38154;47.548;18.828;2023-05-09T12:38:55;99274.19;;;18.62;33.36
51239;BME280;38154;47.548;18.828;2023-05-09T12:41:21;99255.03;;;18.52;34.41
51239;BME280;38154;47.548;18.828;2023-05-09T12:43:47;99258.66;;;18.87;34.76
51239;BME280;38154;47.548;18.828;2023-05-09T12:46:16;99257.22;;;18.72;34.46
51239;BME280;38154;47.548;18.828;2023-05-09T12:48:43;99268.44;;;18.82;34.95
51239;BME280;38154;47.548;18.828;2023-05-09T12:51:08;99254.75;;;19.02;34.98
51239;BME280;38154;47.548;18.828;2023-05-09T12:53:38;99244.66;;;18.84;35.07
51239;BME280;38154;47.548;18.828;2023-05-09T12:56:11;99248.81;;;18.55;37.24
51239;BME280;38154;47.548;18.828;2023-05-09T12:58:37;99245.72;;;19.11;35.03
51239;BME280;38154;47.548;18.828;2023-05-09T13:01:04;99242.53;;;18.97;33.43
51239;BME280;38154;47.548;18.828;2023-05-09T13:03:30;99243.28;;;19.36;35.83
51239;BME280;38154;47.548;18.828;2023-05-09T13:06:02;99238.06;;;19.33;34.88